sensor_id;sensor_type;location;lat;lon;timestamp;temperature;humidity
33139;DHT22;19501;50.948;5.316;2022-11-20T00:01:16;4.40;99.90
33139;DHT22;19501;50.948;5.316;2022-11-20T00:03:41;4.50;99.90
33139;DHT22;19501;50.948;5.316;2022-11-20T00:06:10;4.60;99.90
33139;DHT22;19501;50.948;5.316;2022-11-20T00:08:36;4.50;99.90
33139;DHT22;19501;50.948;5.316;2022-11-20T00:11:29;4.50;99.90
33139;DHT22;19501;50.948;5.316;2022-11-20T00:13:57;4.40;99.90
33139;DHT22;19501;50.948;5.316;2022-11-20T00:16:24;4.20;99.90
33139;DHT22;19501;50.948;5.316;2022-11-20T00:18:52;4.30;99.90
33139;DHT22;19501;50.948;5.316;2022-11-20T00:21:23;4.50;99.90
33139;DHT22;19501;50.948;5.316;2022-11-20T00:23:51;4.60;99.90
33139;DHT22;19501;50.948;5.316;2022-11-20T00:26:19;4.80;99.90
33139;DHT22;19501;50.948;5.316;2022-11-20T00:28:50;4.60;99.90
33139;DHT22;19501;50.948;5.316;2022-11-20T00:31:18;4.60;99.90
33139;DHT22;19501;50.948;5.316;2022-11-20T00:33:46;4.60;99.90
33139;DHT22;19501;50.948;5.316;2022-11-20T00:36:15;4.50;99.90
33139;DHT22;19501;50.948;5.316;2022-11-20T00:38:42;4.60;99.90
33139;DHT22;19501;50.948;5.316;2022-11-20T00:41:13;4.60;99.90
33139;DHT22;19501;50.948;5.316;2022-11-20T00:43:39;4.50;99.90
33139;DHT22;19501;50.948;5.316;2022-11-20T00:48:35;4.70;99.90
33139;DHT22;19501;50.948;5.316;2022-11-20T00:51:02;4.50;99.90
33139;DHT22;19501;50.948;5.316;2022-11-20T00:53:28;4.40;99.90
33139;DHT22;19501;50.948;5.316;2022-11-20T00:56:02;4.40;99.90
33139;DHT22;19501;50.948;5.316;2022-11-20T00:58:33;4.30;99.90
33139;DHT22;19501;50.948;5.316;2022-11-20T01:01:02;4.30;99.90
33139;DHT22;19501;50.948;5.316;2022-11-20T01:03:31;4.40;99.90
33139;DHT22;19501;50.948;5.316;2022-11-20T01:06:06;4.40;99.90
33139;DHT22;19501;50.948;5.316;2022-11-20T01:08:34;4.40;99.90
33139;DHT22;19501;50.948;5.316;2022-11-20T01:11:01;4.50;99.90
33139;DHT22;19501;50.948;5.316;2022-11-20T01:13:29;4.40;99.90
33139;DHT22;19501;50.948;5.316;2022-11-20T01:16:11;4.40;99.90
33139;DHT22;19501;50.948;5.316;2022-11-20T01:18:40;4.30;99.90
33139;DHT22;19501;50.948;5.316;2022-11-20T01:21:08;4.20;99.90
33139;DHT22;19501;50.948;5.316;2022-11-20T01:23:37;4.00;99.90
33139;DHT22;19501;50.948;5.316;2022-11-20T01:26:15;4.00;99.90
33139;DHT22;19501;50.948;5.316;2022-11-20T01:28:41;4.00;99.90
33139;DHT22;19501;50.948;5.316;2022-11-20T01:31:22;4.00;99.90
33139;DHT22;19501;50.948;5.316;2022-11-20T01:33:51;4.10;99.90
33139;DHT22;19501;50.948;5.316;2022-11-20T01:36:19;4.20;99.90
33139;DHT22;19501;50.948;5.316;2022-11-20T01:38:46;4.10;99.90
33139;DHT22;19501;50.948;5.316;2022-11-20T01:41:14;4.20;99.90
33139;DHT22;19501;50.948;5.316;2022-11-20T01:44:01;4.30;99.90
33139;DHT22;19501;50.948;5.316;2022-11-20T01:46:27;4.20;99.90
33139;DHT22;19501;50.948;5.316;2022-11-20T01:49:02;4.30;99.90
33139;DHT22;19501;50.948;5.316;2022-11-20T01:51:48;4.50;99.90
33139;DHT22;19501;50.948;5.316;2022-11-20T01:54:47;4.40;99.90
33139;DHT22;19501;50.948;5.316;2022-11-20T01:57:15;4.30;99.90
33139;DHT22;19501;50.948;5.316;2022-11-20T01:59:47;4.20;99.90
33139;DHT22;19501;50.948;5.316;2022-11-20T02:02:14;4.30;99.90
33139;DHT22;19501;50.948;5.316;2022-11-20T02:04:40;4.20;99.90
33139;DHT22;19501;50.948;5.316;2022-11-20T02:07:07;4.20;99.90
33139;DHT22;19501;50.948;5.316;2022-11-20T02:09:33;4.30;99.90
33139;DHT22;19501;50.948;5.316;2022-11-20T02:11:59;4.30;99.90
33139;DHT22;19501;50.948;5.316;2022-11-20T02:14:25;4.20;99.90
33139;DHT22;19501;50.948;5.316;2022-11-20T02:16:52;4.10;99.90
33139;DHT22;19501;50.948;5.316;2022-11-20T02:19:28;4.00;99.90
33139;DHT22;19501;50.948;5.316;2022-11-20T02:22:14;4.10;99.90
33139;DHT22;19501;50.948;5.316;2022-11-20T02:24:44;4.10;99.90
33139;DHT22;19501;50.948;5.316;2022-11-20T02:27:15;4.00;99.90
33139;DHT22;19501;50.948;5.316;2022-11-20T02:32:20;3.90;99.90
33139;DHT22;19501;50.948;5.316;2022-11-20T02:34:47;3.80;99.90
33139;DHT22;19501;50.948;5.316;2022-11-20T02:37:14;4.10;99.90
33139;DHT22;19501;50.948;5.316;2022-11-20T02:39:40;4.00;99.90
33139;DHT22;19501;50.948;5.316;2022-11-20T02:42:06;4.10;99.90
33139;DHT22;19501;50.948;5.316;2022-11-20T02:44:31;4.20;99.90
33139;DHT22;19501;50.948;5.316;2022-11-20T02:46:58;4.30;99.90
33139;DHT22;19501;50.948;5.316;2022-11-20T02:49:26;4.40;99.90
33139;DHT22;19501;50.948;5.316;2022-11-20T02:51:52;4.50;99.90
33139;DHT22;19501;50.948;5.316;2022-11-20T02:54:18;4.50;99.90
33139;DHT22;19501;50.948;5.316;2022-11-20T02:56:43;4.40;99.90
33139;DHT22;19501;50.948;5.316;2022-11-20T02:59:09;4.40;99.90
33139;DHT22;19501;50.948;5.316;2022-11-20T03:01:35;4.50;99.90
33139;DHT22;19501;50.948;5.316;2022-11-20T03:04:01;4.60;99.90
33139;DHT22;19501;50.948;5.316;2022-11-20T03:06:27;4.40;99.90
33139;DHT22;19501;50.948;5.316;2022-11-20T03:08:53;4.20;99.90
33139;DHT22;19501;50.948;5.316;2022-11-20T03:11:24;4.10;99.90
33139;DHT22;19501;50.948;5.316;2022-11-20T03:13:50;4.10;99.90
33139;DHT22;19501;50.948;5.316;2022-11-20T03:16:18;4.10;99.90
33139;DHT22;19501;50.948;5.316;2022-11-20T03:18:44;4.10;99.90
33139;DHT22;19501;50.948;5.316;2022-11-20T03:21:11;4.00;99.90
33139;DHT22;19501;50.948;5.316;2022-11-20T03:23:37;4.00;99.90
33139;DHT22;19501;50.948;5.316;2022-11-20T03:28:40;4.20;99.90
33139;DHT22;19501;50.948;5.316;2022-11-20T03:31:13;4.40;99.90
33139;DHT22;19501;50.948;5.316;2022-11-20T03:33:41;4.40;99.90
33139;DHT22;19501;50.948;5.316;2022-11-20T03:36:12;4.50;99.90
33139;DHT22;19501;50.948;5.316;2022-11-20T03:38:41;4.50;99.90
33139;DHT22;19501;50.948;5.316;2022-11-20T03:41:12;4.40;99.90
33139;DHT22;19501;50.948;5.316;2022-11-20T03:43:39;4.20;99.90
33139;DHT22;19501;50.948;5.316;2022-11-20T03:46:05;4.30;99.90
33139;DHT22;19501;50.948;5.316;2022-11-20T03:48:34;4.30;99.90
33139;DHT22;19501;50.948;5.316;2022-11-20T03:51:11;4.30;99.90
33139;DHT22;19501;50.948;5.316;2022-11-20T03:53:38;4.40;99.90
33139;DHT22;19501;50.948;5.316;2022-11-20T03:56:04;4.40;99.90
33139;DHT22;19501;50.948;5.316;2022-11-20T03:58:34;4.60;99.90
33139;DHT22;19501;50.948;5.316;2022-11-20T04:01:33;4.70;99.90
33139;DHT22;19501;50.948;5.316;2022-11-20T04:03:59;4.70;99.90
33139;DHT22;19501;50.948;5.316;2022-11-20T04:06:29;4.70;99.90
33139;DHT22;19501;50.948;5.316;2022-11-20T04:08:56;4.80;99.90
33139;DHT22;19501;50.948;5.316;2022-11-20T04:11:28;4.70;99.90
33139;DHT22;19501;50.948;5.316;2022-11-20T04:13:56;4.60;99.90
33139;DHT22;19501;50.948;5.316;2022-11-20T04:16:23;4.40;99.90
33139;DHT22;19501;50.948;5.316;2022-11-20T04:18:59;4.40;99.90
33139;DHT22;19501;50.948;5.316;2022-11-20T04:21:27;4.40;99.90
33139;DHT22;19501;50.948;5.316;2022-11-20T04:23:53;4.30;99.90
33139;DHT22;19501;50.948;5.316;2022-11-20T04:26:21;4.30;99.90
33139;DHT22;19501;50.948;5.316;2022-11-20T04:28:47;4.40;99.90
33139;DHT22;19501;50.948;5.316;2022-11-20T04:31:24;4.20;99.90
33139;DHT22;19501;50.948;5.316;2022-11-20T04:33:50;4.30;99.90
33139;DHT22;19501;50.948;5.316;2022-11-20T04:36:19;4.30;99.90
33139;DHT22;19501;50.948;5.316;2022-11-20T04:38:45;4.10;99.90
33139;DHT22;19501;50.948;5.316;2022-11-20T04:41:19;4.10;99.90
33139;DHT22;19501;50.948;5.316;2022-11-20T04:43:49;4.00;99.90
33139;DHT22;19501;50.948;5.316;2022-11-20T04:46:16;3.80;99.90
33139;DHT22;19501;50.948;5.316;2022-11-20T04:48:41;3.90;99.90
33139;DHT22;19501;50.948;5.316;2022-11-20T04:51:07;3.90;99.90
33139;DHT22;19501;50.948;5.316;2022-11-20T04:53:33;4.00;99.90
33139;DHT22;19501;50.948;5.316;2022-11-20T04:56:04;4.20;99.90
33139;DHT22;19501;50.948;5.316;2022-11-20T04:58:30;4.10;99.90
33139;DHT22;19501;50.948;5.316;2022-11-20T05:01:18;4.00;99.90
33139;DHT22;19501;50.948;5.316;2022-11-20T05:03:45;3.80;99.90
33139;DHT22;19501;50.948;5.316;2022-11-20T05:06:13;3.80;99.90
33139;DHT22;19501;50.948;5.316;2022-11-20T05:08:39;3.80;99.90
33139;DHT22;19501;50.948;5.316;2022-11-20T05:11:07;4.00;99.90
33139;DHT22;19501;50.948;5.316;2022-11-20T05:13:34;4.10;99.90
33139;DHT22;19501;50.948;5.316;2022-11-20T05:16:04;4.10;99.90
33139;DHT22;19501;50.948;5.316;2022-11-20T05:18:30;4.10;99.90
33139;DHT22;19501;50.948;5.316;2022-11-20T05:20:57;4.00;99.90
33139;DHT22;19501;50.948;5.316;2022-11-20T05:23:23;4.00;99.90
33139;DHT22;19501;50.948;5.316;2022-11-20T05:25:52;4.00;99.90
33139;DHT22;19501;50.948;5.316;2022-11-20T05:28:23;4.20;99.90
33139;DHT22;19501;50.948;5.316;2022-11-20T05:30:49;4.10;99.90
33139;DHT22;19501;50.948;5.316;2022-11-20T05:33:15;4.10;99.90
33139;DHT22;19501;50.948;5.316;2022-11-20T05:35:41;4.10;99.90
33139;DHT22;19501;50.948;5.316;2022-11-20T05:38:07;4.10;99.90
33139;DHT22;19501;50.948;5.316;2022-11-20T05:40:33;4.30;99.90
33139;DHT22;19501;50.948;5.316;2022-11-20T05:42:59;4.40;99.90
33139;DHT22;19501;50.948;5.316;2022-11-20T05:45:25;4.50;99.90
33139;DHT22;19501;50.948;5.316;2022-11-20T05:47:51;4.30;99.90
33139;DHT22;19501;50.948;5.316;2022-11-20T05:50:16;4.40;99.90
33139;DHT22;19501;50.948;5.316;2022-11-20T05:52:42;4.40;99.90
33139;DHT22;19501;50.948;5.316;2022-11-20T05:55:08;4.30;99.90
33139;DHT22;19501;50.948;5.316;2022-11-20T05:57:35;4.40;99.90
33139;DHT22;19501;50.948;5.316;2022-11-20T06:00:01;4.30;99.90
33139;DHT22;19501;50.948;5.316;2022-11-20T06:02:27;4.30;99.90
33139;DHT22;19501;50.948;5.316;2022-11-20T06:04:52;4.50;99.90
33139;DHT22;19501;50.948;5.316;2022-11-20T06:07:18;4.40;99.90
33139;DHT22;19501;50.948;5.316;2022-11-20T06:09:43;4.30;99.90
33139;DHT22;19501;50.948;5.316;2022-11-20T06:12:09;4.40;99.90
33139;DHT22;19501;50.948;5.316;2022-11-20T06:14:35;4.30;99.90
33139;DHT22;19501;50.948;5.316;2022-11-20T06:17:00;4.40;99.90
33139;DHT22;19501;50.948;5.316;2022-11-20T06:19:26;4.50;99.90
33139;DHT22;19501;50.948;5.316;2022-11-20T06:21:52;4.50;99.90
33139;DHT22;19501;50.948;5.316;2022-11-20T06:24:17;4.50;99.90
33139;DHT22;19501;50.948;5.316;2022-11-20T06:26:45;4.60;99.90
33139;DHT22;19501;50.948;5.316;2022-11-20T06:29:13;4.60;99.90
33139;DHT22;19501;50.948;5.316;2022-11-20T06:31:39;4.60;99.90
33139;DHT22;19501;50.948;5.316;2022-11-20T06:34:05;4.70;99.90
33139;DHT22;19501;50.948;5.316;2022-11-20T06:36:32;4.70;99.90
33139;DHT22;19501;50.948;5.316;2022-11-20T06:38:58;4.40;99.90
33139;DHT22;19501;50.948;5.316;2022-11-20T06:41:24;4.40;99.90
33139;DHT22;19501;50.948;5.316;2022-11-20T06:43:50;4.30;99.90
33139;DHT22;19501;50.948;5.316;2022-11-20T06:46:17;4.40;99.90
33139;DHT22;19501;50.948;5.316;2022-11-20T06:48:43;4.20;99.90
33139;DHT22;19501;50.948;5.316;2022-11-20T06:51:09;4.40;99.90
33139;DHT22;19501;50.948;5.316;2022-11-20T06:53:35;4.50;99.90
33139;DHT22;19501;50.948;5.316;2022-11-20T06:56:01;4.50;99.90
33139;DHT22;19501;50.948;5.316;2022-11-20T06:58:28;4.60;99.90
33139;DHT22;19501;50.948;5.316;2022-11-20T07:01:10;4.70;99.90
33139;DHT22;19501;50.948;5.316;2022-11-20T07:03:37;4.70;99.90
33139;DHT22;19501;50.948;5.316;2022-11-20T07:06:03;4.80;99.90
33139;DHT22;19501;50.948;5.316;2022-11-20T07:08:33;4.90;99.90
33139;DHT22;19501;50.948;5.316;2022-11-20T07:11:06;4.90;99.90
33139;DHT22;19501;50.948;5.316;2022-11-20T07:13:32;4.50;99.90
33139;DHT22;19501;50.948;5.316;2022-11-20T07:16:03;4.80;99.90
33139;DHT22;19501;50.948;5.316;2022-11-20T07:18:30;4.70;99.90
33139;DHT22;19501;50.948;5.316;2022-11-20T07:21:00;4.70;99.90
33139;DHT22;19501;50.948;5.316;2022-11-20T07:23:26;4.80;99.90
33139;DHT22;19501;50.948;5.316;2022-11-20T07:25:51;4.80;99.90
33139;DHT22;19501;50.948;5.316;2022-11-20T07:28:17;4.80;99.90
33139;DHT22;19501;50.948;5.316;2022-11-20T07:30:42;4.90;99.90
33139;DHT22;19501;50.948;5.316;2022-11-20T07:33:08;4.90;99.90
33139;DHT22;19501;50.948;5.316;2022-11-20T07:35:33;4.90;99.90
33139;DHT22;19501;50.948;5.316;2022-11-20T07:37:59;4.90;99.90
33139;DHT22;19501;50.948;5.316;2022-11-20T07:40:25;4.90;99.90
33139;DHT22;19501;50.948;5.316;2022-11-20T07:42:54;5.00;99.90
33139;DHT22;19501;50.948;5.316;2022-11-20T07:45:22;5.00;99.90
33139;DHT22;19501;50.948;5.316;2022-11-20T07:47:49;5.20;99.90
33139;DHT22;19501;50.948;5.316;2022-11-20T07:50:15;5.10;99.90
33139;DHT22;19501;50.948;5.316;2022-11-20T07:52:40;5.20;99.90
33139;DHT22;19501;50.948;5.316;2022-11-20T07:55:07;5.10;99.90
33139;DHT22;19501;50.948;5.316;2022-11-20T07:57:32;5.00;99.90
33139;DHT22;19501;50.948;5.316;2022-11-20T07:59:58;4.80;99.90
33139;DHT22;19501;50.948;5.316;2022-11-20T08:02:24;4.90;99.90
33139;DHT22;19501;50.948;5.316;2022-11-20T08:04:50;5.10;99.90
33139;DHT22;19501;50.948;5.316;2022-11-20T08:07:16;5.10;99.90
33139;DHT22;19501;50.948;5.316;2022-11-20T08:09:42;5.10;99.90
33139;DHT22;19501;50.948;5.316;2022-11-20T08:12:07;5.20;99.90
33139;DHT22;19501;50.948;5.316;2022-11-20T08:14:52;5.20;99.90
33139;DHT22;19501;50.948;5.316;2022-11-20T08:17:17;5.30;99.90
33139;DHT22;19501;50.948;5.316;2022-11-20T08:19:43;5.50;99.90
33139;DHT22;19501;50.948;5.316;2022-11-20T08:22:09;5.50;99.90
33139;DHT22;19501;50.948;5.316;2022-11-20T08:24:35;5.30;99.90
33139;DHT22;19501;50.948;5.316;2022-11-20T08:27:02;5.30;99.90
33139;DHT22;19501;50.948;5.316;2022-11-20T08:29:27;5.50;99.90
33139;DHT22;19501;50.948;5.316;2022-11-20T08:31:53;5.50;99.90
33139;DHT22;19501;50.948;5.316;2022-11-20T08:34:19;5.70;99.90
33139;DHT22;19501;50.948;5.316;2022-11-20T08:36:45;5.70;99.90
33139;DHT22;19501;50.948;5.316;2022-11-20T08:39:12;5.60;99.90
33139;DHT22;19501;50.948;5.316;2022-11-20T08:41:38;5.50;99.90
33139;DHT22;19501;50.948;5.316;2022-11-20T08:44:07;5.40;99.90
33139;DHT22;19501;50.948;5.316;2022-11-20T08:46:40;5.40;99.90
33139;DHT22;19501;50.948;5.316;2022-11-20T08:49:11;5.30;99.90
33139;DHT22;19501;50.948;5.316;2022-11-20T08:51:38;5.50;99.90
33139;DHT22;19501;50.948;5.316;2022-11-20T08:54:04;5.50;99.90
33139;DHT22;19501;50.948;5.316;2022-11-20T08:56:31;5.60;99.90
33139;DHT22;19501;50.948;5.316;2022-11-20T08:58:56;5.50;99.90
33139;DHT22;19501;50.948;5.316;2022-11-20T09:01:23;5.40;99.90
33139;DHT22;19501;50.948;5.316;2022-11-20T09:03:49;5.70;99.90
33139;DHT22;19501;50.948;5.316;2022-11-20T09:06:15;5.80;99.90
33139;DHT22;19501;50.948;5.316;2022-11-20T09:08:42;5.90;99.90
33139;DHT22;19501;50.948;5.316;2022-11-20T09:11:08;6.00;99.90
33139;DHT22;19501;50.948;5.316;2022-11-20T09:13:35;6.00;99.90
33139;DHT22;19501;50.948;5.316;2022-11-20T09:16:06;6.10;99.90
33139;DHT22;19501;50.948;5.316;2022-11-20T09:18:33;6.10;99.90
33139;DHT22;19501;50.948;5.316;2022-11-20T09:21:06;6.30;99.90
33139;DHT22;19501;50.948;5.316;2022-11-20T09:23:34;6.40;99.90
33139;DHT22;19501;50.948;5.316;2022-11-20T09:26:19;6.40;99.90
33139;DHT22;19501;50.948;5.316;2022-11-20T09:28:44;6.50;99.90
33139;DHT22;19501;50.948;5.316;2022-11-20T09:31:24;6.30;99.90
33139;DHT22;19501;50.948;5.316;2022-11-20T09:33:51;6.40;99.90
33139;DHT22;19501;50.948;5.316;2022-11-20T09:36:17;6.50;99.90
33139;DHT22;19501;50.948;5.316;2022-11-20T09:38:47;6.60;99.90
33139;DHT22;19501;50.948;5.316;2022-11-20T09:41:29;6.70;99.90
33139;DHT22;19501;50.948;5.316;2022-11-20T09:46:57;7.10;99.90
33139;DHT22;19501;50.948;5.316;2022-11-20T09:52:50;7.30;99.90
33139;DHT22;19501;50.948;5.316;2022-11-20T09:55:19;7.20;99.90
33139;DHT22;19501;50.948;5.316;2022-11-20T09:57:47;7.10;99.90
33139;DHT22;19501;50.948;5.316;2022-11-20T10:00:14;7.10;99.90
33139;DHT22;19501;50.948;5.316;2022-11-20T10:03:01;7.20;99.90
33139;DHT22;19501;50.948;5.316;2022-11-20T10:05:31;7.20;99.90
33139;DHT22;19501;50.948;5.316;2022-11-20T10:08:12;7.30;99.90
33139;DHT22;19501;50.948;5.316;2022-11-20T10:11:00;7.30;99.90
33139;DHT22;19501;50.948;5.316;2022-11-20T10:24:38;7.10;99.90
33139;DHT22;19501;50.948;5.316;2022-11-20T10:30:14;7.40;99.90
33139;DHT22;19501;50.948;5.316;2022-11-20T10:32:51;7.40;99.90
33139;DHT22;19501;50.948;5.316;2022-11-20T10:38:00;7.60;99.90
33139;DHT22;19501;50.948;5.316;2022-11-20T10:40:49;7.60;99.90
33139;DHT22;19501;50.948;5.316;2022-11-20T10:43:33;7.60;99.90
33139;DHT22;19501;50.948;5.316;2022-11-20T10:46:05;7.50;99.90
33139;DHT22;19501;50.948;5.316;2022-11-20T10:48:32;7.50;99.90
33139;DHT22;19501;50.948;5.316;2022-11-20T10:51:12;7.60;99.90
33139;DHT22;19501;50.948;5.316;2022-11-20T10:56:50;7.70;99.90
33139;DHT22;19501;50.948;5.316;2022-11-20T11:01:56;8.00;99.90
33139;DHT22;19501;50.948;5.316;2022-11-20T11:04:40;8.20;99.90
33139;DHT22;19501;50.948;5.316;2022-11-20T11:07:16;8.20;99.90
33139;DHT22;19501;50.948;5.316;2022-11-20T11:09:48;8.20;99.90
33139;DHT22;19501;50.948;5.316;2022-11-20T11:12:14;8.20;99.90
33139;DHT22;19501;50.948;5.316;2022-11-20T11:14:48;8.20;99.90
33139;DHT22;19501;50.948;5.316;2022-11-20T11:17:29;8.40;99.90
33139;DHT22;19501;50.948;5.316;2022-11-20T11:22:34;8.50;99.90
33139;DHT22;19501;50.948;5.316;2022-11-20T11:25:00;8.50;99.90
33139;DHT22;19501;50.948;5.316;2022-11-20T11:27:26;8.60;99.90
33139;DHT22;19501;50.948;5.316;2022-11-20T11:30:03;8.50;99.90
33139;DHT22;19501;50.948;5.316;2022-11-20T11:32:38;8.60;99.90
33139;DHT22;19501;50.948;5.316;2022-11-20T11:35:06;8.50;99.90
33139;DHT22;19501;50.948;5.316;2022-11-20T11:37:34;8.50;99.90
33139;DHT22;19501;50.948;5.316;2022-11-20T11:40:01;8.80;99.90
33139;DHT22;19501;50.948;5.316;2022-11-20T11:42:28;8.70;99.90
33139;DHT22;19501;50.948;5.316;2022-11-20T11:44:58;8.60;99.90
33139;DHT22;19501;50.948;5.316;2022-11-20T11:47:32;8.60;99.90
33139;DHT22;19501;50.948;5.316;2022-11-20T12:00:58;9.20;99.90
33139;DHT22;19501;50.948;5.316;2022-11-20T12:03:38;9.30;99.90
33139;DHT22;19501;50.948;5.316;2022-11-20T12:06:13;9.50;99.90
33139;DHT22;19501;50.948;5.316;2022-11-20T12:11:29;9.60;99.90
33139;DHT22;19501;50.948;5.316;2022-11-20T12:16:35;9.90;99.90
33139;DHT22;19501;50.948;5.316;2022-11-20T12:19:08;9.90;99.90
33139;DHT22;19501;50.948;5.316;2022-11-20T12:22:01;10.10;99.90
33139;DHT22;19501;50.948;5.316;2022-11-20T12:24:46;10.30;99.90
33139;DHT22;19501;50.948;5.316;2022-11-20T12:30:11;10.20;99.90
33139;DHT22;19501;50.948;5.316;2022-11-20T12:38:28;9.90;99.90
33139;DHT22;19501;50.948;5.316;2022-11-20T12:50:08;9.50;99.90
33139;DHT22;19501;50.948;5.316;2022-11-20T12:52:56;9.40;99.90
33139;DHT22;19501;50.948;5.316;2022-11-20T12:55:47;9.50;99.90
33139;DHT22;19501;50.948;5.316;2022-11-20T13:01:29;9.40;99.90
33139;DHT22;19501;50.948;5.316;2022-11-20T13:07:06;9.40;99.90
33139;DHT22;19501;50.948;5.316;2022-11-20T13:09:42;9.50;99.90
33139;DHT22;19501;50.948;5.316;2022-11-20T13:15:30;9.30;99.90
33139;DHT22;19501;50.948;5.316;2022-11-20T13:18:01;9.20;99.90
33139;DHT22;19501;50.948;5.316;2022-11-20T13:20:29;9.20;99.90
33139;DHT22;19501;50.948;5.316;2022-11-20T13:22:56;8.90;99.90
33139;DHT22;19501;50.948;5.316;2022-11-20T13:25:31;8.70;99.90
33139;DHT22;19501;50.948;5.316;2022-11-20T13:27:59;8.50;99.90
33139;DHT22;19501;50.948;5.316;2022-11-20T13:30:27;8.50;99.90
33139;DHT22;19501;50.948;5.316;2022-11-20T13:32:56;8.40;99.90
33139;DHT22;19501;50.948;5.316;2022-11-20T13:38:06;8.10;99.90
33139;DHT22;19501;50.948;5.316;2022-11-20T13:40:34;8.10;99.90
33139;DHT22;19501;50.948;5.316;2022-11-20T13:46:07;7.90;99.90
33139;DHT22;19501;50.948;5.316;2022-11-20T13:48:43;7.90;99.90
33139;DHT22;19501;50.948;5.316;2022-11-20T13:56:51;7.80;99.90
33139;DHT22;19501;50.948;5.316;2022-11-20T14:02:16;7.90;99.90
33139;DHT22;19501;50.948;5.316;2022-11-20T14:04:46;7.80;99.90
33139;DHT22;19501;50.948;5.316;2022-11-20T14:07:14;7.80;99.90
33139;DHT22;19501;50.948;5.316;2022-11-20T14:09:50;7.90;99.90
33139;DHT22;19501;50.948;5.316;2022-11-20T14:12:18;7.90;99.90
33139;DHT22;19501;50.948;5.316;2022-11-20T14:14:53;7.90;99.90
33139;DHT22;19501;50.948;5.316;2022-11-20T14:19:55;7.90;99.90
33139;DHT22;19501;50.948;5.316;2022-11-20T14:22:25;7.80;99.90
33139;DHT22;19501;50.948;5.316;2022-11-20T14:27:44;7.80;99.90
33139;DHT22;19501;50.948;5.316;2022-11-20T14:30:16;7.70;99.90
33139;DHT22;19501;50.948;5.316;2022-11-20T14:32:43;7.70;99.90
33139;DHT22;19501;50.948;5.316;2022-11-20T14:35:34;7.70;99.90
33139;DHT22;19501;50.948;5.316;2022-11-20T14:38:00;7.70;99.90
33139;DHT22;19501;50.948;5.316;2022-11-20T14:40:32;7.70;99.90
33139;DHT22;19501;50.948;5.316;2022-11-20T14:43:00;7.60;99.90
33139;DHT22;19501;50.948;5.316;2022-11-20T14:45:26;7.70;99.90
33139;DHT22;19501;50.948;5.316;2022-11-20T14:47:55;7.70;99.90
33139;DHT22;19501;50.948;5.316;2022-11-20T14:50:28;7.60;99.90
33139;DHT22;19501;50.948;5.316;2022-11-20T14:53:00;7.50;99.90
33139;DHT22;19501;50.948;5.316;2022-11-20T14:55:32;7.50;99.90
33139;DHT22;19501;50.948;5.316;2022-11-20T15:01:05;7.50;99.90
33139;DHT22;19501;50.948;5.316;2022-11-20T15:03:41;7.50;99.90
33139;DHT22;19501;50.948;5.316;2022-11-20T15:06:10;7.50;99.90
33139;DHT22;19501;50.948;5.316;2022-11-20T15:08:36;7.50;99.90
33139;DHT22;19501;50.948;5.316;2022-11-20T15:11:02;7.50;99.90
33139;DHT22;19501;50.948;5.316;2022-11-20T15:13:36;7.60;99.90
33139;DHT22;19501;50.948;5.316;2022-11-20T15:16:04;7.50;99.90
33139;DHT22;19501;50.948;5.316;2022-11-20T15:18:38;7.40;99.90
33139;DHT22;19501;50.948;5.316;2022-11-20T15:21:10;7.40;99.90
33139;DHT22;19501;50.948;5.316;2022-11-20T15:23:39;7.40;99.90
33139;DHT22;19501;50.948;5.316;2022-11-20T15:26:06;7.70;99.90
33139;DHT22;19501;50.948;5.316;2022-11-20T15:28:41;7.50;99.90
33139;DHT22;19501;50.948;5.316;2022-11-20T15:31:11;7.50;99.90
33139;DHT22;19501;50.948;5.316;2022-11-20T15:33:38;7.50;99.90
33139;DHT22;19501;50.948;5.316;2022-11-20T15:36:04;7.50;99.90
33139;DHT22;19501;50.948;5.316;2022-11-20T15:38:30;7.50;99.90
33139;DHT22;19501;50.948;5.316;2022-11-20T15:40:56;7.50;99.90
33139;DHT22;19501;50.948;5.316;2022-11-20T15:43:21;7.50;99.90
33139;DHT22;19501;50.948;5.316;2022-11-20T15:46:25;7.50;99.90
33139;DHT22;19501;50.948;5.316;2022-11-20T15:48:55;7.60;99.90
33139;DHT22;19501;50.948;5.316;2022-11-20T15:51:36;7.60;99.90
33139;DHT22;19501;50.948;5.316;2022-11-20T15:54:17;7.60;99.90
33139;DHT22;19501;50.948;5.316;2022-11-20T15:56:48;7.60;99.90
33139;DHT22;19501;50.948;5.316;2022-11-20T15:59:17;7.60;99.90
33139;DHT22;19501;50.948;5.316;2022-11-20T16:01:43;7.60;99.90
33139;DHT22;19501;50.948;5.316;2022-11-20T16:04:11;7.60;99.90
33139;DHT22;19501;50.948;5.316;2022-11-20T16:06:38;7.60;99.90
33139;DHT22;19501;50.948;5.316;2022-11-20T16:09:04;7.60;99.90
33139;DHT22;19501;50.948;5.316;2022-11-20T16:11:33;7.70;99.90
33139;DHT22;19501;50.948;5.316;2022-11-20T16:14:02;7.70;99.90
33139;DHT22;19501;50.948;5.316;2022-11-20T16:16:46;7.70;99.90
33139;DHT22;19501;50.948;5.316;2022-11-20T16:19:12;7.80;99.90
33139;DHT22;19501;50.948;5.316;2022-11-20T16:21:39;7.90;99.90
33139;DHT22;19501;50.948;5.316;2022-11-20T16:24:08;7.90;99.90
33139;DHT22;19501;50.948;5.316;2022-11-20T16:26:34;7.90;99.90
33139;DHT22;19501;50.948;5.316;2022-11-20T16:29:01;8.00;99.90
33139;DHT22;19501;50.948;5.316;2022-11-20T16:31:28;8.10;99.90
33139;DHT22;19501;50.948;5.316;2022-11-20T16:33:56;8.10;99.90
33139;DHT22;19501;50.948;5.316;2022-11-20T16:36:26;8.10;99.90
33139;DHT22;19501;50.948;5.316;2022-11-20T16:38:53;8.10;99.90
33139;DHT22;19501;50.948;5.316;2022-11-20T16:41:20;8.10;99.90
33139;DHT22;19501;50.948;5.316;2022-11-20T16:43:51;8.10;99.90
33139;DHT22;19501;50.948;5.316;2022-11-20T16:46:19;8.20;99.90
33139;DHT22;19501;50.948;5.316;2022-11-20T16:48:51;8.20;99.90
33139;DHT22;19501;50.948;5.316;2022-11-20T16:51:17;8.20;99.90
33139;DHT22;19501;50.948;5.316;2022-11-20T16:53:43;8.20;99.90
33139;DHT22;19501;50.948;5.316;2022-11-20T16:56:13;8.20;99.90
33139;DHT22;19501;50.948;5.316;2022-11-20T16:58:41;8.30;99.90
33139;DHT22;19501;50.948;5.316;2022-11-20T17:01:08;8.40;99.90
33139;DHT22;19501;50.948;5.316;2022-11-20T17:03:39;8.40;99.90
33139;DHT22;19501;50.948;5.316;2022-11-20T17:06:19;8.50;99.90
33139;DHT22;19501;50.948;5.316;2022-11-20T17:08:45;8.50;99.90
33139;DHT22;19501;50.948;5.316;2022-11-20T17:11:14;8.60;99.90
33139;DHT22;19501;50.948;5.316;2022-11-20T17:13:40;8.60;99.90
33139;DHT22;19501;50.948;5.316;2022-11-20T17:16:11;8.60;99.90
33139;DHT22;19501;50.948;5.316;2022-11-20T17:18:37;8.60;99.90
33139;DHT22;19501;50.948;5.316;2022-11-20T17:21:04;8.50;99.90
33139;DHT22;19501;50.948;5.316;2022-11-20T17:23:34;8.50;99.90
33139;DHT22;19501;50.948;5.316;2022-11-20T17:26:06;8.40;99.90
33139;DHT22;19501;50.948;5.316;2022-11-20T17:28:33;8.40;99.90
33139;DHT22;19501;50.948;5.316;2022-11-20T17:31:01;8.30;99.90
33139;DHT22;19501;50.948;5.316;2022-11-20T17:33:27;8.30;99.90
33139;DHT22;19501;50.948;5.316;2022-11-20T17:35:52;8.30;99.90
33139;DHT22;19501;50.948;5.316;2022-11-20T17:38:18;8.30;99.90
33139;DHT22;19501;50.948;5.316;2022-11-20T17:40:44;8.30;99.90
33139;DHT22;19501;50.948;5.316;2022-11-20T17:43:10;8.30;99.90
33139;DHT22;19501;50.948;5.316;2022-11-20T17:45:36;8.30;99.90